Time;durP1;ratioP1;P1;durP2;ratioP2;P2;SDS_P1;SDS_P2;PMS_P1;PMS_P2;Temp;Humidity;BMP_temperature;BMP_pressure;BME280_temperature;BME280_humidity;BME280_pressure;Samples;Min_cycle;Max_cycle;Signal;HPM_P1;HPM_P2
2023/12/23 00:00:03;;;;;;;16.58;2.25;;;6.20;99.90;;;;;;5026754;28;20104;-69
2023/12/23 00:02:28;;;;;;;13.32;2.00;;;6.20;99.90;;;;;;4995071;28;20537;-69
2023/12/23 00:04:55;;;;;;;12.15;2.65;;;6.10;99.90;;;;;;4986493;28;20046;-68
2023/12/23 00:07:21;;;;;;;14.13;2.92;;;6.20;99.90;;;;;;5029031;28;20411;-69
2023/12/23 00:09:46;;;;;;;7.47;1.83;;;6.20;99.90;;;;;;5019760;28;20042;-65
2023/12/23 00:12:12;;;;;;;11.00;1.88;;;6.30;99.90;;;;;;5021464;28;20037;-69
2023/12/23 00:14:37;;;;;;;8.82;1.92;;;6.30;99.90;;;;;;5030841;28;20045;-69
2023/12/23 00:17:03;;;;;;;15.30;2.03;;;6.40;99.90;;;;;;5029052;28;20064;-69
2023/12/23 00:19:29;;;;;;;13.07;1.80;;;6.40;99.90;;;;;;5024708;28;20033;-69
2023/12/23 00:21:54;;;;;;;17.45;2.28;;;6.40;99.90;;;;;;5014114;28;20104;-69
2023/12/23 00:24:21;;;;;;;14.38;2.22;;;6.40;99.90;;;;;;5031763;28;20040;-69
2023/12/23 00:26:46;;;;;;;8.63;2.60;;;6.50;99.90;;;;;;5025236;28;20041;-69
2023/12/23 00:29:12;;;;;;;9.77;2.08;;;6.50;99.90;;;;;;5030656;28;20365;-68
2023/12/23 00:31:38;;;;;;;15.38;2.53;;;6.50;99.90;;;;;;5019890;28;20098;-67
2023/12/23 00:34:04;;;;;;;15.32;2.78;;;6.40;99.90;;;;;;5026337;28;20431;-69
2023/12/23 00:36:30;;;;;;;13.85;1.92;;;6.50;99.90;;;;;;5031287;28;20052;-69
2023/12/23 00:38:55;;;;;;;16.67;2.15;;;6.50;99.90;;;;;;5031820;28;20033;-69
2023/12/23 00:41:22;;;;;;;15.77;2.35;;;6.50;99.90;;;;;;5003557;28;20564;-68
2023/12/23 00:43:48;;;;;;;14.50;2.75;;;6.60;99.90;;;;;;5013933;28;20045;-69
2023/12/23 00:46:14;;;;;;;13.88;2.72;;;6.50;99.90;;;;;;5027808;28;20527;-67
2023/12/23 00:48:39;;;;;;;13.95;2.50;;;6.50;99.90;;;;;;5031577;28;20045;-69
2023/12/23 00:51:05;;;;;;;14.57;2.40;;;6.60;99.90;;;;;;5025448;28;20049;-69
2023/12/23 00:53:31;;;;;;;10.75;2.00;;;6.60;99.90;;;;;;5028898;28;20040;-69
2023/12/23 00:55:56;;;;;;;10.07;1.75;;;6.60;99.90;;;;;;5030970;28;20096;-66
2023/12/23 00:58:22;;;;;;;11.95;2.50;;;6.60;99.90;;;;;;5031431;28;20045;-68
2023/12/23 01:00:47;;;;;;;10.52;2.30;;;6.50;99.90;;;;;;5026592;28;20064;-69
2023/12/23 01:03:13;;;;;;;17.33;2.03;;;6.50;99.90;;;;;;5028433;28;20045;-69
2023/12/23 01:05:38;;;;;;;17.83;3.20;;;6.60;99.90;;;;;;5031400;28;20030;-69
2023/12/23 01:08:04;;;;;;;17.50;2.60;;;6.60;99.90;;;;;;5030332;28;20069;-70
2023/12/23 01:10:30;;;;;;;11.88;2.35;;;6.60;99.90;;;;;;5013173;28;20112;-70
2023/12/23 01:12:55;;;;;;;17.00;2.50;;;6.60;99.90;;;;;;5030364;28;20045;-69
2023/12/23 01:15:21;;;;;;;12.10;1.80;;;6.60;99.90;;;;;;5034916;28;20029;-69
2023/12/23 01:17:47;;;;;;;11.45;2.28;;;6.50;99.90;;;;;;5029827;28;20573;-70
2023/12/23 01:20:12;;;;;;;9.80;2.50;;;6.50;99.90;;;;;;5031436;28;20030;-70
2023/12/23 01:22:38;;;;;;;15.88;2.45;;;6.60;99.90;;;;;;5015246;28;20504;-70
2023/12/23 01:25:04;;;;;;;11.90;1.83;;;6.60;99.90;;;;;;5019655;28;20033;-70
2023/12/23 01:27:29;;;;;;;13.25;2.20;;;6.60;99.90;;;;;;5021901;28;20034;-68
2023/12/23 01:29:55;;;;;;;10.60;1.75;;;6.70;99.90;;;;;;5028905;28;20088;-69
2023/12/23 01:32:21;;;;;;;8.80;1.60;;;6.70;99.90;;;;;;5031506;28;20566;-70
2023/12/23 01:34:47;;;;;;;15.27;2.53;;;6.80;99.90;;;;;;5031591;28;20125;-67
2023/12/23 01:37:13;;;;;;;10.60;1.83;;;6.80;99.90;;;;;;5034960;28;20076;-66
2023/12/23 01:39:39;;;;;;;14.18;2.70;;;6.80;99.90;;;;;;5034896;28;20052;-66
2023/12/23 01:42:04;;;;;;;11.45;2.08;;;6.80;99.90;;;;;;5012700;28;20038;-68
2023/12/23 01:44:30;;;;;;;12.48;2.20;;;6.80;99.90;;;;;;5025137;28;20457;-68
2023/12/23 01:46:58;;;;;;;7.60;1.65;;;6.80;99.90;;;;;;5034481;28;20052;-68
2023/12/23 01:49:26;;;;;;;12.40;1.85;;;6.80;99.90;;;;;;5031607;28;20044;-68
2023/12/23 01:51:53;;;;;;;8.43;1.58;;;6.80;99.90;;;;;;5029176;28;20526;-68
2023/12/23 01:54:21;;;;;;;9.63;1.83;;;6.80;99.90;;;;;;5033964;28;20055;-68
2023/12/23 01:56:48;;;;;;;11.70;2.00;;;6.80;99.90;;;;;;5030315;28;20041;-68
2023/12/23 01:59:15;;;;;;;10.32;1.98;;;6.70;99.90;;;;;;5023141;28;20057;-67
2023/12/23 02:01:42;;;;;;;8.65;1.70;;;6.70;99.90;;;;;;5033980;28;20415;-68
2023/12/23 02:04:08;;;;;;;17.67;2.63;;;6.70;99.90;;;;;;5016344;28;20041;-69
2023/12/23 02:06:34;;;;;;;12.88;2.00;;;6.70;99.90;;;;;;5026081;28;20047;-69
2023/12/23 02:09:01;;;;;;;12.52;1.95;;;6.70;99.90;;;;;;5023441;28;20042;-69
2023/12/23 02:11:58;;;;;;;6.65;1.52;;;6.70;99.90;;;;;;5034221;28;20048;-68
2023/12/23 02:14:45;;;;;;;10.40;3.10;;;6.80;99.90;;;;;;5005194;28;20489;-69
2023/12/23 02:17:11;;;;;;;8.20;1.58;;;6.80;99.90;;;;;;5033109;28;20045;-68
2023/12/23 02:19:36;;;;;;;7.90;1.55;;;6.80;99.90;;;;;;5034358;28;20377;-68
2023/12/23 02:22:02;;;;;;;12.20;2.40;;;6.80;99.90;;;;;;5033805;28;20042;-68
2023/12/23 02:24:27;;;;;;;7.95;1.60;;;6.80;99.90;;;;;;5017110;28;20492;-68
2023/12/23 02:27:03;;;;;;;7.65;1.52;;;6.80;99.90;;;;;;5013947;28;20399;-68
2023/12/23 02:29:29;;;;;;;11.95;1.50;;;6.90;99.90;;;;;;5034139;28;20041;-69
2023/12/23 02:31:56;;;;;;;11.57;1.80;;;6.80;99.90;;;;;;5024844;28;20164;-69
2023/12/23 02:34:22;;;;;;;10.15;1.65;;;6.80;99.90;;;;;;5026313;28;20037;-68
2023/12/23 02:36:47;;;;;;;11.32;2.30;;;6.80;99.90;;;;;;5034084;28;20116;-68
2023/12/23 02:39:13;;;;;;;11.85;1.90;;;6.80;99.90;;;;;;5032550;28;20042;-67
2023/12/23 02:41:38;;;;;;;11.27;1.83;;;6.80;99.90;;;;;;5018952;28;20046;-69
2023/12/23 02:44:04;;;;;;;10.00;1.60;;;6.70;99.90;;;;;;5028094;28;20029;-68
2023/12/23 02:46:29;;;;;;;9.93;1.33;;;6.80;99.90;;;;;;5033443;28;20576;-68
2023/12/23 02:48:55;;;;;;;8.82;1.42;;;6.80;99.90;;;;;;5034133;28;20084;-69
2023/12/23 02:51:20;;;;;;;5.70;1.58;;;6.70;99.90;;;;;;5026766;28;20069;-68
2023/12/23 02:53:46;;;;;;;11.77;1.92;;;6.70;99.90;;;;;;5032819;28;20128;-68
2023/12/23 02:56:11;;;;;;;12.00;2.38;;;6.60;99.90;;;;;;5020703;28;20404;-68
2023/12/23 02:58:37;;;;;;;5.95;1.70;;;6.60;99.90;;;;;;5018190;28;20038;-68
2023/12/23 03:01:07;;;;;;;9.75;1.60;;;6.50;99.90;;;;;;5027989;28;20167;-68
2023/12/23 03:03:33;;;;;;;6.35;1.27;;;6.40;99.90;;;;;;5015412;28;20411;-68
2023/12/23 03:05:59;;;;;;;9.95;1.80;;;6.40;99.90;;;;;;5009224;28;20038;-68
2023/12/23 03:08:24;;;;;;;7.70;1.23;;;6.40;99.90;;;;;;4989293;28;20052;-68
2023/12/23 03:10:51;;;;;;;10.13;1.35;;;6.30;99.90;;;;;;5033102;28;20033;-69
2023/12/23 03:13:16;;;;;;;5.35;1.10;;;6.30;99.90;;;;;;5027808;28;20153;-69
2023/12/23 03:15:42;;;;;;;9.55;1.38;;;6.20;99.90;;;;;;5023532;28;20129;-68
2023/12/23 03:18:07;;;;;;;8.75;1.50;;;6.20;99.90;;;;;;5033061;28;20112;-68
2023/12/23 03:20:33;;;;;;;7.30;1.52;;;6.20;99.90;;;;;;5032483;28;20099;-68
2023/12/23 03:22:58;;;;;;;7.85;1.58;;;6.20;99.90;;;;;;5024827;28;20081;-68
2023/12/23 03:25:24;;;;;;;6.65;1.38;;;6.20;99.90;;;;;;5024642;28;20046;-69
2023/12/23 03:27:50;;;;;;;9.88;1.50;;;6.20;99.90;;;;;;5015284;28;20103;-68
2023/12/23 03:30:16;;;;;;;6.22;1.50;;;6.10;99.90;;;;;;5024646;28;20117;-69
2023/12/23 03:32:41;;;;;;;6.68;1.65;;;6.10;99.90;;;;;;5022469;28;20042;-68
2023/12/23 03:35:07;;;;;;;10.75;1.75;;;6.10;99.90;;;;;;5032335;28;20069;-68
2023/12/23 03:37:33;;;;;;;7.45;1.27;;;6.10;99.90;;;;;;5031148;28;20077;-69
2023/12/23 03:39:59;;;;;;;6.97;1.42;;;6.10;99.90;;;;;;5029230;28;20100;-68
2023/12/23 03:42:24;;;;;;;9.40;1.83;;;6.10;99.90;;;;;;5029327;28;20033;-68
2023/12/23 03:44:50;;;;;;;10.65;1.92;;;6.10;99.90;;;;;;5031229;28;20038;-68
2023/12/23 03:47:15;;;;;;;6.18;1.50;;;6.20;99.90;;;;;;5010752;28;20098;-68
2023/12/23 03:49:42;;;;;;;14.00;1.55;;;6.20;99.90;;;;;;5005686;28;20116;-69
2023/12/23 03:52:07;;;;;;;9.30;1.63;;;6.10;99.90;;;;;;5013617;28;20496;-68
2023/12/23 03:54:33;;;;;;;9.15;1.90;;;6.10;99.90;;;;;;5031278;28;20038;-68
2023/12/23 03:56:59;;;;;;;6.30;1.20;;;6.10;99.90;;;;;;4991100;28;20053;-68
2023/12/23 03:59:24;;;;;;;8.65;1.30;;;6.20;99.90;;;;;;5030445;28;20034;-69
2023/12/23 04:01:50;;;;;;;8.25;1.10;;;6.20;99.90;;;;;;5030992;28;20480;-68
2023/12/23 04:04:15;;;;;;;11.73;1.23;;;6.10;99.90;;;;;;5024447;28;20519;-69
2023/12/23 04:06:41;;;;;;;8.80;1.98;;;6.20;99.90;;;;;;5029187;28;20380;-69
2023/12/23 04:09:07;;;;;;;5.97;1.17;;;6.20;99.90;;;;;;5030885;28;20168;-69
2023/12/23 04:11:36;;;;;;;5.18;1.20;;;6.20;99.90;;;;;;5013689;28;20038;-69
2023/12/23 04:14:01;;;;;;;8.45;1.40;;;6.20;99.90;;;;;;5001225;28;20049;-68
2023/12/23 04:16:27;;;;;;;3.28;1.23;;;6.20;99.90;;;;;;5028713;28;20033;-69
2023/12/23 04:18:53;;;;;;;5.93;1.10;;;6.20;99.90;;;;;;5030823;28;20033;-68
2023/12/23 04:21:19;;;;;;;2.90;0.93;;;6.20;99.90;;;;;;5026054;28;20045;-69
2023/12/23 04:23:45;;;;;;;2.45;1.13;;;6.20;99.90;;;;;;5030117;28;20041;-69
2023/12/23 04:26:13;;;;;;;3.08;0.88;;;6.20;99.90;;;;;;5013305;28;20065;-68
2023/12/23 04:28:39;;;;;;;4.50;0.90;;;6.20;99.90;;;;;;5028448;28;20112;-68
2023/12/23 04:31:05;;;;;;;4.88;1.10;;;6.20;99.90;;;;;;5028010;28;20148;-68
2023/12/23 04:33:31;;;;;;;4.03;0.98;;;6.20;99.90;;;;;;5030038;28;20033;-69
2023/12/23 04:35:57;;;;;;;3.00;1.00;;;6.30;99.90;;;;;;5030906;28;20072;-68
2023/12/23 04:38:23;;;;;;;3.78;1.33;;;6.20;99.90;;;;;;5024592;28;20037;-69
2023/12/23 04:40:49;;;;;;;2.22;0.95;;;6.30;99.90;;;;;;5025505;28;20049;-69
2023/12/23 04:43:14;;;;;;;3.08;1.08;;;6.20;99.90;;;;;;5029192;28;20392;-69
2023/12/23 04:45:40;;;;;;;6.53;1.15;;;6.30;99.90;;;;;;5030611;28;20049;-67
2023/12/23 04:48:06;;;;;;;6.78;0.98;;;6.30;99.90;;;;;;5029823;28;20117;-67
2023/12/23 04:50:31;;;;;;;6.82;1.10;;;6.30;99.90;;;;;;4999009;28;20055;-67
2023/12/23 04:52:57;;;;;;;7.93;1.00;;;6.20;99.90;;;;;;5027604;28;20075;-75
2023/12/23 04:55:22;;;;;;;1.80;0.98;;;6.20;99.90;;;;;;5005555;28;20469;-67
2023/12/23 04:57:48;;;;;;;6.55;1.30;;;6.20;99.90;;;;;;5029677;28;20124;-66
2023/12/23 05:00:14;;;;;;;6.53;1.30;;;6.20;99.90;;;;;;5012794;28;20507;-67
2023/12/23 05:02:40;;;;;;;2.72;1.20;;;6.20;99.90;;;;;;5030036;28;20120;-67
2023/12/23 05:05:06;;;;;;;2.97;1.27;;;6.20;99.90;;;;;;5010049;28;20116;-69
2023/12/23 05:07:32;;;;;;;5.65;1.70;;;6.20;99.90;;;;;;5029869;28;20500;-69
2023/12/23 05:09:58;;;;;;;4.25;1.50;;;6.20;99.90;;;;;;5008205;28;20049;-67
2023/12/23 05:12:23;;;;;;;2.92;1.50;;;6.20;99.90;;;;;;5001228;28;20038;-69
2023/12/23 05:14:50;;;;;;;2.90;1.50;;;6.20;99.90;;;;;;5029998;28;20068;-67
2023/12/23 05:17:15;;;;;;;3.10;1.40;;;6.20;99.90;;;;;;5030236;28;20411;-70
2023/12/23 05:19:41;;;;;;;3.58;1.70;;;6.20;99.90;;;;;;5023797;28;20041;-69
2023/12/23 05:22:07;;;;;;;3.00;1.75;;;6.20;99.90;;;;;;5026356;28;20462;-66
2023/12/23 05:24:33;;;;;;;5.28;2.15;;;6.20;99.90;;;;;;5029733;28;20037;-67
2023/12/23 05:26:58;;;;;;;3.72;2.15;;;6.20;99.90;;;;;;5006979;28;20060;-68
2023/12/23 05:29:24;;;;;;;4.45;2.13;;;6.30;99.90;;;;;;5002219;28;20041;-68
2023/12/23 05:31:50;;;;;;;4.10;1.67;;;6.30;99.90;;;;;;5029621;28;20041;-68
2023/12/23 05:34:15;;;;;;;4.18;1.80;;;6.40;99.90;;;;;;5012247;28;20049;-68
2023/12/23 05:36:41;;;;;;;5.63;1.98;;;6.70;99.90;;;;;;5024265;28;20042;-68
2023/12/23 05:39:07;;;;;;;6.75;2.88;;;7.00;99.90;;;;;;5012057;28;20389;-67
2023/12/23 05:41:32;;;;;;;5.93;2.65;;;7.40;99.90;;;;;;5029523;28;20033;-68
2023/12/23 05:43:58;;;;;;;12.38;3.30;;;7.90;99.90;;;;;;5016837;28;20050;-67
2023/12/23 05:46:23;;;;;;;10.52;3.90;;;8.10;99.90;;;;;;5029483;28;20033;-67
2023/12/23 05:48:49;;;;;;;14.32;4.30;;;8.40;99.90;;;;;;5030132;28;20071;-66
2023/12/23 05:51:15;;;;;;;9.73;3.30;;;8.50;99.90;;;;;;5029876;28;20042;-66
2023/12/23 05:53:40;;;;;;;10.25;3.63;;;8.70;99.90;;;;;;5021645;28;20041;-66
2023/12/23 05:56:09;;;;;;;13.70;4.53;;;8.70;99.90;;;;;;5024748;28;20076;-66
2023/12/23 05:58:34;;;;;;;12.77;3.60;;;8.90;99.90;;;;;;5021521;28;20033;-66
2023/12/23 06:01:00;;;;;;;15.13;4.38;;;8.90;99.90;;;;;;5027022;28;21209;-66
2023/12/23 06:03:26;;;;;;;15.02;3.95;;;8.90;99.90;;;;;;5006629;28;20054;-66
2023/12/23 06:05:52;;;;;;;13.60;4.38;;;8.90;99.90;;;;;;5033317;28;20037;-66
2023/12/23 06:08:17;;;;;;;12.20;4.20;;;9.00;99.90;;;;;;5026288;28;20049;-66
2023/12/23 06:10:43;;;;;;;17.35;3.70;;;9.00;99.90;;;;;;5027959;28;20045;-70
2023/12/23 06:13:08;;;;;;;15.82;4.18;;;9.00;99.90;;;;;;5001651;28;20145;-67
2023/12/23 06:15:34;;;;;;;18.75;4.60;;;9.00;99.90;;;;;;5015000;28;20089;-67
2023/12/23 06:17:59;;;;;;;15.82;3.75;;;9.10;99.90;;;;;;5005583;28;20056;-68
2023/12/23 06:20:25;;;;;;;15.88;4.88;;;9.10;99.90;;;;;;5030506;28;20041;-68
2023/12/23 06:22:50;;;;;;;11.73;3.95;;;9.10;99.90;;;;;;5026392;28;20121;-68
2023/12/23 06:25:16;;;;;;;14.57;4.35;;;9.10;99.90;;;;;;4998220;28;20042;-68
2023/12/23 06:27:42;;;;;;;14.30;4.30;;;9.10;99.90;;;;;;5022338;28;20029;-68
2023/12/23 06:30:08;;;;;;;16.30;4.32;;;9.10;99.90;;;;;;5032695;28;20046;-65
2023/12/23 06:32:33;;;;;;;18.77;4.10;;;9.10;99.90;;;;;;5026771;28;20045;-65
2023/12/23 06:34:59;;;;;;;13.02;3.90;;;9.10;99.90;;;;;;5013332;28;20536;-65
2023/12/23 06:37:24;;;;;;;16.73;4.43;;;9.10;99.90;;;;;;5030823;28;20495;-65
2023/12/23 06:39:50;;;;;;;21.83;4.85;;;9.10;99.90;;;;;;5032179;28;20041;-66
2023/12/23 06:42:15;;;;;;;14.85;3.75;;;9.10;99.90;;;;;;5028754;28;20034;-68
2023/12/23 06:44:41;;;;;;;16.38;4.15;;;9.10;99.90;;;;;;5023260;28;20044;-68
2023/12/23 06:47:07;;;;;;;17.10;4.40;;;9.20;99.90;;;;;;5032087;28;20037;-66
2023/12/23 06:49:33;;;;;;;17.75;4.35;;;9.20;99.90;;;;;;5031778;28;20042;-66
2023/12/23 06:51:59;;;;;;;10.00;2.80;;;9.20;99.90;;;;;;5016001;28;20072;-66
2023/12/23 06:54:24;;;;;;;17.42;4.00;;;9.20;99.90;;;;;;5000129;28;20128;-68
2023/12/23 06:56:50;;;;;;;18.15;4.57;;;9.20;99.90;;;;;;5024771;28;20045;-65
2023/12/23 06:59:15;;;;;;;18.05;4.28;;;9.20;99.90;;;;;;5018319;28;20025;-69
2023/12/23 07:01:41;;;;;;;15.40;4.10;;;9.20;99.90;;;;;;5018718;28;20041;-68
2023/12/23 07:04:07;;;;;;;15.60;3.83;;;9.30;99.90;;;;;;5010303;28;20049;-67
2023/12/23 07:06:34;;;;;;;20.23;4.50;;;9.30;99.90;;;;;;5029343;28;20045;-68
2023/12/23 07:09:00;;;;;;;16.75;4.60;;;9.30;99.90;;;;;;5022119;28;20091;-68
2023/12/23 07:11:25;;;;;;;15.15;4.60;;;9.30;99.90;;;;;;5028246;28;20788;-70
2023/12/23 07:13:51;;;;;;;19.77;4.75;;;9.40;99.90;;;;;;5029102;28;20388;-68
2023/12/23 07:16:17;;;;;;;15.65;4.15;;;9.30;99.90;;;;;;5023300;28;20064;-68
2023/12/23 07:18:42;;;;;;;26.35;5.93;;;9.40;99.90;;;;;;5029047;28;20084;-70
2023/12/23 07:21:08;;;;;;;19.40;4.72;;;9.30;99.90;;;;;;5011272;28;20608;-70
2023/12/23 07:23:34;;;;;;;19.85;5.05;;;9.40;99.90;;;;;;5026566;28;20098;-67
2023/12/23 07:25:59;;;;;;;18.88;3.40;;;9.30;99.90;;;;;;5016027;28;20049;-69
2023/12/23 07:28:25;;;;;;;13.30;4.22;;;9.30;99.90;;;;;;5009055;28;20557;-69
2023/12/23 07:30:50;;;;;;;14.48;3.83;;;9.30;99.90;;;;;;5011809;28;20521;-69
2023/12/23 07:33:16;;;;;;;17.45;4.03;;;9.30;99.90;;;;;;5025464;28;20983;-68
2023/12/23 07:35:42;;;;;;;24.50;4.55;;;9.30;99.90;;;;;;5048742;22;20049;-68
2023/12/23 07:38:08;;;;;;;16.70;4.35;;;9.30;99.90;;;;;;5032147;28;20037;-69
2023/12/23 07:40:35;;;;;;;28.17;4.97;;;9.40;99.90;;;;;;5049621;28;20036;-69
2023/12/23 07:43:01;;;;;;;19.55;4.15;;;9.40;99.90;;;;;;5050064;28;20045;-69
2023/12/23 07:45:27;;;;;;;17.05;4.28;;;9.40;99.90;;;;;;5027744;28;20037;-70
2023/12/23 07:47:53;;;;;;;25.20;5.55;;;9.40;99.90;;;;;;5016421;28;20029;-69
2023/12/23 07:50:18;;;;;;;17.17;4.25;;;9.40;99.90;;;;;;5033965;28;20039;-69
2023/12/23 07:52:44;;;;;;;15.65;4.30;;;9.40;99.90;;;;;;5013156;28;20036;-69
2023/12/23 07:55:09;;;;;;;21.60;4.85;;;9.40;99.90;;;;;;5042811;28;20527;-69
2023/12/23 07:57:35;;;;;;;23.27;4.95;;;9.40;99.90;;;;;;5027340;28;20029;-69
2023/12/23 08:00:01;;;;;;;27.60;5.32;;;9.40;99.90;;;;;;5016960;28;20120;-68
2023/12/23 08:02:26;;;;;;;21.00;4.93;;;9.40;99.90;;;;;;5020872;28;20044;-66
2023/12/23 08:04:52;;;;;;;16.75;4.25;;;9.30;99.90;;;;;;5032720;28;20044;-65
2023/12/23 08:07:18;;;;;;;20.45;4.55;;;9.40;99.90;;;;;;5038712;28;20045;-68
2023/12/23 08:09:43;;;;;;;18.60;4.03;;;9.40;99.90;;;;;;5015599;28;20041;-67
2023/12/23 08:12:09;;;;;;;23.70;4.72;;;9.40;99.90;;;;;;5050488;28;20081;-69
2023/12/23 08:14:34;;;;;;;22.55;5.30;;;9.40;99.90;;;;;;5027782;28;20390;-68
2023/12/23 08:20:10;;;;;;;13.77;3.60;;;9.40;99.90;;;;;;5031075;28;20401;-68
2023/12/23 08:22:36;;;;;;;19.50;3.60;;;9.40;99.90;;;;;;5021707;28;20470;-69
2023/12/23 08:25:02;;;;;;;17.35;3.75;;;9.40;99.90;;;;;;5033688;28;20045;-67
2023/12/23 08:27:54;;;;;;;16.42;3.80;;;9.40;99.90;;;;;;5020860;28;20108;-66
2023/12/23 08:30:21;;;;;;;17.42;4.55;;;9.40;99.90;;;;;;5020563;28;20041;-66
2023/12/23 08:32:47;;;;;;;19.45;3.88;;;9.30;99.90;;;;;;5015253;28;20400;-69
2023/12/23 08:35:12;;;;;;;11.38;3.70;;;9.40;99.90;;;;;;5023678;28;20103;-70
2023/12/23 08:37:38;;;;;;;18.90;4.22;;;9.40;99.90;;;;;;5043670;28;20063;-70
2023/12/23 08:40:04;;;;;;;25.05;4.50;;;9.40;99.90;;;;;;5025064;28;20045;-69
2023/12/23 08:42:30;;;;;;;18.45;4.53;;;9.40;99.90;;;;;;5027079;28;20522;-68
2023/12/23 08:44:55;;;;;;;20.85;4.82;;;9.40;99.90;;;;;;5044783;28;20065;-68
2023/12/23 08:47:21;;;;;;;27.40;4.68;;;9.40;99.90;;;;;;5028343;28;20083;-67
2023/12/23 08:49:48;;;;;;;16.83;4.57;;;9.40;99.90;;;;;;5058844;28;20045;-66
2023/12/23 08:52:14;;;;;;;20.55;3.90;;;9.40;99.90;;;;;;5035736;28;20076;-67
2023/12/23 08:54:39;;;;;;;20.35;4.07;;;9.40;99.90;;;;;;5032520;28;20502;-67
2023/12/23 08:57:05;;;;;;;17.17;4.32;;;9.40;99.90;;;;;;5028190;28;20037;-67
2023/12/23 08:59:31;;;;;;;17.40;4.05;;;9.40;99.90;;;;;;5029082;28;20087;-66
2023/12/23 09:02:01;;;;;;;21.30;4.20;;;9.40;99.90;;;;;;5021321;28;20075;-66
2023/12/23 09:04:26;;;;;;;18.90;4.47;;;9.40;99.90;;;;;;5038807;28;20411;-65
2023/12/23 09:06:52;;;;;;;15.07;3.90;;;9.40;99.90;;;;;;5045051;28;20059;-66
2023/12/23 09:09:17;;;;;;;27.70;4.35;;;9.40;99.90;;;;;;5042823;28;20564;-66
2023/12/23 09:11:44;;;;;;;22.20;4.07;;;9.50;99.90;;;;;;5031366;28;20041;-66
2023/12/23 09:14:10;;;;;;;21.45;4.25;;;9.40;99.90;;;;;;5019841;28;20052;-66
2023/12/23 09:16:35;;;;;;;17.65;4.10;;;9.40;99.90;;;;;;5050443;28;20048;-66
2023/12/23 09:19:01;;;;;;;19.27;4.18;;;9.40;99.90;;;;;;5050156;28;20479;-66
2023/12/23 09:21:27;;;;;;;24.17;4.63;;;9.40;99.90;;;;;;5014542;28;20049;-66
2023/12/23 09:23:52;;;;;;;26.15;4.03;;;9.40;99.90;;;;;;5037523;28;20483;-66
2023/12/23 09:26:18;;;;;;;17.33;4.22;;;9.40;99.90;;;;;;5049775;28;20114;-66
2023/12/23 09:28:43;;;;;;;16.23;3.10;;;9.40;99.90;;;;;;5044219;28;20048;-65
2023/12/23 09:31:09;;;;;;;17.38;3.97;;;9.40;99.90;;;;;;5040937;28;20048;-65
2023/12/23 09:33:36;;;;;;;19.40;3.80;;;9.40;99.90;;;;;;5048187;28;20112;-65
2023/12/23 09:36:01;;;;;;;24.00;5.00;;;9.40;99.90;;;;;;5050130;28;20479;-65
2023/12/23 09:38:27;;;;;;;19.95;4.07;;;9.40;99.90;;;;;;5037598;28;20041;-65
2023/12/23 09:40:52;;;;;;;25.40;4.97;;;9.40;99.90;;;;;;5042652;28;20099;-65
2023/12/23 09:43:20;;;;;;;18.05;3.70;;;9.40;99.90;;;;;;5050256;28;20115;-65
2023/12/23 09:45:58;;;;;;;16.50;4.00;;;9.40;99.90;;;;;;5054362;28;20494;-65
2023/12/23 09:48:24;;;;;;;19.85;4.43;;;9.30;99.90;;;;;;5035103;28;20032;-66
2023/12/23 09:50:50;;;;;;;21.50;4.03;;;9.40;99.90;;;;;;5048484;28;20047;-66
2023/12/23 09:53:58;;;;;;;17.25;3.67;;;9.40;99.90;;;;;;5053271;28;20033;-64
2023/12/23 09:56:27;;;;;;;18.38;3.53;;;9.40;99.90;;;;;;5018504;28;20045;-65
2023/12/23 09:59:25;;;;;;;18.63;3.38;;;9.30;99.90;;;;;;5061282;28;20032;-64
2023/12/23 10:01:51;;;;;;;15.23;3.60;;;9.40;99.90;;;;;;5035426;28;20052;-63
2023/12/23 10:06:59;;;;;;;16.15;3.67;;;9.40;99.90;;;;;;5044220;28;20167;-64
2023/12/23 10:09:29;;;;;;;19.75;4.18;;;9.40;99.90;;;;;;5039287;28;20048;-67
2023/12/23 10:11:55;;;;;;;18.00;3.38;;;9.40;99.90;;;;;;5030959;28;20395;-65
2023/12/23 10:14:22;;;;;;;23.88;4.35;;;9.40;99.90;;;;;;5042564;28;20510;-64
2023/12/23 10:16:47;;;;;;;21.58;4.45;;;9.30;99.90;;;;;;5031901;28;20496;-65
2023/12/23 10:21:49;;;;;;;17.35;3.03;;;9.30;99.90;;;;;;5080825;28;20060;-63
2023/12/23 10:24:14;;;;;;;25.50;4.25;;;9.30;99.90;;;;;;5063663;28;20109;-63
2023/12/23 10:26:41;;;;;;;17.52;3.78;;;9.30;99.90;;;;;;5087000;28;20040;-65
2023/12/23 10:29:09;;;;;;;17.58;2.90;;;9.30;99.90;;;;;;5076986;28;20074;-65
2023/12/23 10:31:36;;;;;;;17.42;3.85;;;9.30;99.90;;;;;;5090675;28;20124;-63
2023/12/23 10:34:11;;;;;;;16.20;3.65;;;9.30;99.90;;;;;;5076952;28;20098;-64
2023/12/23 10:36:42;;;;;;;22.80;3.80;;;9.30;99.90;;;;;;5073289;28;20158;-63
2023/12/23 10:39:25;;;;;;;16.25;4.55;;;9.30;99.90;;;;;;5079129;28;20779;-66
2023/12/23 10:42:01;;;;;;;18.40;3.47;;;9.30;99.90;;;;;;5086400;28;20044;-66
2023/12/23 10:44:29;;;;;;;19.40;4.13;;;9.30;99.90;;;;;;5082411;28;20520;-63
2023/12/23 10:46:55;;;;;;;21.60;4.07;;;9.30;99.90;;;;;;5082101;28;20401;-65
2023/12/23 10:49:23;;;;;;;21.13;3.83;;;9.30;99.90;;;;;;5078964;28;20036;-66
2023/12/23 10:51:50;;;;;;;18.48;3.80;;;9.40;99.90;;;;;;5074359;28;20040;-65
2023/12/23 10:54:15;;;;;;;28.05;4.10;;;9.40;99.90;;;;;;5092534;28;20122;-65
2023/12/23 10:56:43;;;;;;;16.10;3.00;;;9.40;99.90;;;;;;5061214;28;21124;-64
2023/12/23 10:59:10;;;;;;;22.08;3.85;;;9.40;99.90;;;;;;5082504;28;20040;-63
2023/12/23 11:01:36;;;;;;;18.45;3.70;;;9.40;99.90;;;;;;5082496;28;20120;-66
2023/12/23 11:04:02;;;;;;;17.55;2.95;;;9.40;99.90;;;;;;5068151;28;20093;-67
2023/12/23 11:06:40;;;;;;;12.15;2.75;;;9.40;99.90;;;;;;5077203;28;20460;-63
2023/12/23 11:09:08;;;;;;;11.35;2.90;;;9.40;99.90;;;;;;5080750;28;20036;-64
2023/12/23 11:11:35;;;;;;;13.18;3.35;;;9.40;99.90;;;;;;5072297;28;20409;-66
2023/12/23 11:14:00;;;;;;;25.08;3.53;;;9.40;99.90;;;;;;5083041;28;20043;-66
2023/12/23 11:16:26;;;;;;;14.40;3.35;;;9.50;99.90;;;;;;5085481;28;20040;-65
2023/12/23 11:18:54;;;;;;;16.05;3.53;;;9.50;99.90;;;;;;5083304;28;20098;-65
2023/12/23 11:21:20;;;;;;;15.75;3.10;;;9.50;99.90;;;;;;5062368;28;20051;-64
2023/12/23 11:23:46;;;;;;;17.55;3.50;;;9.50;99.90;;;;;;5077894;28;20040;-64
2023/12/23 11:26:42;;;;;;;18.48;4.60;;;9.50;99.90;;;;;;5088589;28;20383;-66
2023/12/23 11:29:18;;;;;;;11.85;3.25;;;9.50;99.90;;;;;;5056448;28;20496;-67
2023/12/23 11:31:44;;;;;;;15.65;3.25;;;9.50;99.90;;;;;;5074461;28;20054;-68
2023/12/23 11:34:17;;;;;;;11.88;2.70;;;9.50;99.90;;;;;;5049525;28;20040;-66
2023/12/23 11:36:46;;;;;;;15.23;3.08;;;9.50;99.90;;;;;;5079735;28;20545;-66
2023/12/23 11:39:13;;;;;;;11.07;2.72;;;9.50;99.90;;;;;;5083096;28;20071;-65
2023/12/23 11:41:43;;;;;;;14.52;3.15;;;9.50;99.90;;;;;;5076540;28;20048;-66
2023/12/23 11:44:10;;;;;;;16.00;3.25;;;9.50;99.90;;;;;;5086487;28;20039;-65
2023/12/23 11:46:38;;;;;;;17.85;3.35;;;9.50;99.90;;;;;;5072128;28;20085;-65
2023/12/23 11:49:08;;;;;;;14.50;3.13;;;9.50;99.90;;;;;;5065345;28;20128;-66
2023/12/23 11:51:34;;;;;;;16.13;3.72;;;9.50;99.90;;;;;;5055625;28;20040;-65
2023/12/23 11:54:00;;;;;;;20.70;3.58;;;9.60;99.90;;;;;;5080472;28;20486;-65
2023/12/23 11:56:26;;;;;;;19.08;3.22;;;9.60;99.90;;;;;;5090842;28;20051;-66
2023/12/23 11:58:51;;;;;;;16.85;2.78;;;9.60;99.90;;;;;;5089580;28;20036;-69
2023/12/23 12:01:18;;;;;;;18.42;3.50;;;9.60;99.90;;;;;;5064407;28;20125;-66
2023/12/23 12:03:43;;;;;;;15.85;3.60;;;9.60;99.90;;;;;;5081969;28;20243;-67
2023/12/23 12:06:09;;;;;;;18.75;3.50;;;9.70;99.90;;;;;;5066733;28;20427;-65
2023/12/23 12:08:35;;;;;;;14.73;3.38;;;9.70;99.90;;;;;;5080002;28;20039;-65
2023/12/23 12:11:02;;;;;;;16.15;3.53;;;9.80;99.90;;;;;;5089647;28;20040;-66
2023/12/23 12:13:28;;;;;;;12.27;3.42;;;9.90;99.90;;;;;;5072058;28;20044;-65
2023/12/23 12:15:54;;;;;;;12.45;2.80;;;9.90;99.90;;;;;;5063779;28;20047;-66
2023/12/23 12:18:20;;;;;;;11.90;2.70;;;9.90;99.90;;;;;;5069934;28;20054;-65
2023/12/23 12:20:46;;;;;;;13.48;2.85;;;9.90;99.90;;;;;;5090251;28;20404;-67
2023/12/23 12:23:14;;;;;;;17.25;3.30;;;9.90;99.90;;;;;;5084979;28;20028;-66
2023/12/23 12:25:48;;;;;;;15.00;3.50;;;10.00;99.90;;;;;;5078903;28;20076;-67
2023/12/23 12:28:14;;;;;;;20.63;2.75;;;10.00;99.90;;;;;;5079240;28;20120;-66
2023/12/23 12:30:40;;;;;;;18.65;3.70;;;10.00;99.90;;;;;;5082645;28;20421;-66
2023/12/23 12:33:05;;;;;;;15.93;3.38;;;10.00;99.90;;;;;;5090020;28;20040;-66
2023/12/23 12:35:31;;;;;;;16.73;2.95;;;10.10;99.90;;;;;;5090150;28;20135;-66
2023/12/23 12:37:56;;;;;;;16.10;3.08;;;10.10;99.90;;;;;;5069182;28;20052;-66
2023/12/23 12:40:22;;;;;;;18.58;2.92;;;10.10;99.90;;;;;;5080992;28;20089;-65
2023/12/23 12:42:50;;;;;;;14.38;2.92;;;10.10;99.90;;;;;;5076116;28;20032;-66
2023/12/23 12:45:16;;;;;;;14.55;3.10;;;10.10;99.90;;;;;;5088332;28;20036;-67
2023/12/23 12:47:41;;;;;;;15.65;2.95;;;10.10;99.90;;;;;;5070853;28;20036;-66
2023/12/23 12:50:07;;;;;;;20.40;3.40;;;10.10;99.90;;;;;;5074623;28;20033;-66
2023/12/23 12:52:34;;;;;;;12.38;3.03;;;10.10;99.90;;;;;;5052774;28;20059;-66